sensor_id;sensor_type;location;lat;lon;timestamp;temperature;humidity
16479;DHT22;8350;52.316;10.530;2022-10-26T00:01:54;9.20;99.90
16479;DHT22;8350;52.316;10.530;2022-10-26T00:04:21;9.20;99.90
16479;DHT22;8350;52.316;10.530;2022-10-26T00:06:48;9.10;99.90
16479;DHT22;8350;52.316;10.530;2022-10-26T00:09:15;9.00;99.90
16479;DHT22;8350;52.316;10.530;2022-10-26T00:11:42;8.90;99.90
16479;DHT22;8350;52.316;10.530;2022-10-26T00:14:11;8.90;99.90
16479;DHT22;8350;52.316;10.530;2022-10-26T00:16:38;8.90;99.90
16479;DHT22;8350;52.316;10.530;2022-10-26T00:19:05;8.90;99.90
16479;DHT22;8350;52.316;10.530;2022-10-26T00:21:32;8.80;99.90
16479;DHT22;8350;52.316;10.530;2022-10-26T00:24:00;8.80;99.90
16479;DHT22;8350;52.316;10.530;2022-10-26T00:26:27;8.70;99.90
16479;DHT22;8350;52.316;10.530;2022-10-26T00:28:54;8.80;99.90
16479;DHT22;8350;52.316;10.530;2022-10-26T00:31:24;8.70;99.90
16479;DHT22;8350;52.316;10.530;2022-10-26T00:33:52;8.70;99.90
16479;DHT22;8350;52.316;10.530;2022-10-26T00:36:20;8.70;99.90
16479;DHT22;8350;52.316;10.530;2022-10-26T00:38:51;8.70;99.90
16479;DHT22;8350;52.316;10.530;2022-10-26T00:41:20;8.60;99.90
16479;DHT22;8350;52.316;10.530;2022-10-26T00:43:51;8.50;99.90
16479;DHT22;8350;52.316;10.530;2022-10-26T00:46:20;8.50;99.90
16479;DHT22;8350;52.316;10.530;2022-10-26T00:48:52;8.50;99.90
16479;DHT22;8350;52.316;10.530;2022-10-26T00:51:24;8.50;99.90
16479;DHT22;8350;52.316;10.530;2022-10-26T00:53:53;8.50;99.90
16479;DHT22;8350;52.316;10.530;2022-10-26T00:56:21;8.50;99.90
16479;DHT22;8350;52.316;10.530;2022-10-26T00:58:48;8.50;99.90
16479;DHT22;8350;52.316;10.530;2022-10-26T01:01:15;8.50;99.90
16479;DHT22;8350;52.316;10.530;2022-10-26T01:03:42;8.50;99.90
16479;DHT22;8350;52.316;10.530;2022-10-26T01:06:13;8.50;99.90
16479;DHT22;8350;52.316;10.530;2022-10-26T01:08:41;8.40;99.90
16479;DHT22;8350;52.316;10.530;2022-10-26T01:11:10;8.40;99.90
16479;DHT22;8350;52.316;10.530;2022-10-26T01:13:38;8.50;99.90
16479;DHT22;8350;52.316;10.530;2022-10-26T01:16:17;8.50;99.90
16479;DHT22;8350;52.316;10.530;2022-10-26T01:18:57;8.60;99.90
16479;DHT22;8350;52.316;10.530;2022-10-26T01:21:47;8.60;99.90
16479;DHT22;8350;52.316;10.530;2022-10-26T01:24:34;8.60;99.90
16479;DHT22;8350;52.316;10.530;2022-10-26T01:27:26;8.80;99.90
16479;DHT22;8350;52.316;10.530;2022-10-26T01:30:16;8.90;99.90
16479;DHT22;8350;52.316;10.530;2022-10-26T01:32:51;8.90;99.90
16479;DHT22;8350;52.316;10.530;2022-10-26T01:35:26;8.90;99.90
16479;DHT22;8350;52.316;10.530;2022-10-26T01:37:57;8.80;99.90
16479;DHT22;8350;52.316;10.530;2022-10-26T01:40:34;8.80;99.90
16479;DHT22;8350;52.316;10.530;2022-10-26T01:43:04;8.80;99.90
16479;DHT22;8350;52.316;10.530;2022-10-26T01:45:37;8.80;99.90
16479;DHT22;8350;52.316;10.530;2022-10-26T01:48:07;8.80;99.90
16479;DHT22;8350;52.316;10.530;2022-10-26T01:50:36;8.80;99.90
16479;DHT22;8350;52.316;10.530;2022-10-26T01:53:03;8.80;99.90
16479;DHT22;8350;52.316;10.530;2022-10-26T01:55:51;8.80;99.90
16479;DHT22;8350;52.316;10.530;2022-10-26T01:58:41;8.80;99.90
16479;DHT22;8350;52.316;10.530;2022-10-26T02:01:20;8.80;99.90
16479;DHT22;8350;52.316;10.530;2022-10-26T02:03:57;8.80;99.90
16479;DHT22;8350;52.316;10.530;2022-10-26T02:06:33;8.90;99.90
16479;DHT22;8350;52.316;10.530;2022-10-26T02:09:10;9.00;99.90
16479;DHT22;8350;52.316;10.530;2022-10-26T02:11:45;9.20;99.90
16479;DHT22;8350;52.316;10.530;2022-10-26T02:14:18;9.20;99.90
16479;DHT22;8350;52.316;10.530;2022-10-26T02:16:53;9.20;99.90
16479;DHT22;8350;52.316;10.530;2022-10-26T02:19:37;9.20;99.90
16479;DHT22;8350;52.316;10.530;2022-10-26T02:22:12;9.20;99.90
16479;DHT22;8350;52.316;10.530;2022-10-26T02:24:40;9.10;99.90
16479;DHT22;8350;52.316;10.530;2022-10-26T02:27:12;9.20;99.90
16479;DHT22;8350;52.316;10.530;2022-10-26T02:29:42;9.30;99.90
16479;DHT22;8350;52.316;10.530;2022-10-26T02:32:12;9.40;99.90
16479;DHT22;8350;52.316;10.530;2022-10-26T02:34:43;9.40;99.90
16479;DHT22;8350;52.316;10.530;2022-10-26T02:37:12;9.50;99.90
16479;DHT22;8350;52.316;10.530;2022-10-26T02:39:41;9.50;99.90
16479;DHT22;8350;52.316;10.530;2022-10-26T02:42:10;9.50;99.90
16479;DHT22;8350;52.316;10.530;2022-10-26T02:44:41;9.60;99.90
16479;DHT22;8350;52.316;10.530;2022-10-26T02:47:11;9.60;99.90
16479;DHT22;8350;52.316;10.530;2022-10-26T02:49:39;9.70;99.90
16479;DHT22;8350;52.316;10.530;2022-10-26T02:52:11;9.70;99.90
16479;DHT22;8350;52.316;10.530;2022-10-26T02:54:48;9.80;99.90
16479;DHT22;8350;52.316;10.530;2022-10-26T02:57:19;9.80;99.90
16479;DHT22;8350;52.316;10.530;2022-10-26T02:59:49;9.70;99.90
16479;DHT22;8350;52.316;10.530;2022-10-26T03:02:18;9.60;99.90
16479;DHT22;8350;52.316;10.530;2022-10-26T03:04:47;9.60;99.90
16479;DHT22;8350;52.316;10.530;2022-10-26T03:07:20;9.70;99.90
16479;DHT22;8350;52.316;10.530;2022-10-26T03:09:47;9.80;99.90
16479;DHT22;8350;52.316;10.530;2022-10-26T03:12:14;9.80;99.90
16479;DHT22;8350;52.316;10.530;2022-10-26T03:14:41;9.70;99.90
16479;DHT22;8350;52.316;10.530;2022-10-26T03:17:08;9.60;99.90
16479;DHT22;8350;52.316;10.530;2022-10-26T03:19:37;9.50;99.90
16479;DHT22;8350;52.316;10.530;2022-10-26T03:22:04;9.50;99.90
16479;DHT22;8350;52.316;10.530;2022-10-26T03:24:31;9.40;99.90
16479;DHT22;8350;52.316;10.530;2022-10-26T03:26:58;9.30;99.90
16479;DHT22;8350;52.316;10.530;2022-10-26T03:29:25;9.10;99.90
16479;DHT22;8350;52.316;10.530;2022-10-26T03:31:52;8.90;99.90
16479;DHT22;8350;52.316;10.530;2022-10-26T03:34:20;8.90;99.90
16479;DHT22;8350;52.316;10.530;2022-10-26T03:36:49;8.90;99.90
16479;DHT22;8350;52.316;10.530;2022-10-26T03:39:16;8.80;99.90
16479;DHT22;8350;52.316;10.530;2022-10-26T03:41:43;8.70;99.90
16479;DHT22;8350;52.316;10.530;2022-10-26T03:44:10;8.60;99.90
16479;DHT22;8350;52.316;10.530;2022-10-26T03:46:37;8.50;99.90
16479;DHT22;8350;52.316;10.530;2022-10-26T03:49:04;8.50;99.90
16479;DHT22;8350;52.316;10.530;2022-10-26T03:51:31;8.50;99.90
16479;DHT22;8350;52.316;10.530;2022-10-26T03:54:00;8.50;99.90
16479;DHT22;8350;52.316;10.530;2022-10-26T03:56:26;8.40;99.90
16479;DHT22;8350;52.316;10.530;2022-10-26T03:58:54;8.50;99.90
16479;DHT22;8350;52.316;10.530;2022-10-26T04:01:21;8.50;99.90
16479;DHT22;8350;52.316;10.530;2022-10-26T04:03:48;8.60;99.90
16479;DHT22;8350;52.316;10.530;2022-10-26T04:06:15;8.60;99.90
16479;DHT22;8350;52.316;10.530;2022-10-26T04:08:42;8.60;99.90
16479;DHT22;8350;52.316;10.530;2022-10-26T04:11:11;8.60;99.90
16479;DHT22;8350;52.316;10.530;2022-10-26T04:13:38;8.50;99.90
16479;DHT22;8350;52.316;10.530;2022-10-26T04:16:06;8.50;99.90
16479;DHT22;8350;52.316;10.530;2022-10-26T04:18:33;8.50;99.90
16479;DHT22;8350;52.316;10.530;2022-10-26T04:21:01;8.40;99.90
16479;DHT22;8350;52.316;10.530;2022-10-26T04:23:28;8.40;99.90
16479;DHT22;8350;52.316;10.530;2022-10-26T04:25:55;8.30;99.90
16479;DHT22;8350;52.316;10.530;2022-10-26T04:28:23;8.00;99.90
16479;DHT22;8350;52.316;10.530;2022-10-26T04:30:50;7.90;99.90
16479;DHT22;8350;52.316;10.530;2022-10-26T04:33:17;7.90;99.90
16479;DHT22;8350;52.316;10.530;2022-10-26T04:35:45;7.90;99.90
16479;DHT22;8350;52.316;10.530;2022-10-26T04:38:13;7.70;99.90
16479;DHT22;8350;52.316;10.530;2022-10-26T04:40:40;7.60;99.90
16479;DHT22;8350;52.316;10.530;2022-10-26T04:43:07;7.60;99.90
16479;DHT22;8350;52.316;10.530;2022-10-26T04:45:36;7.60;99.90
16479;DHT22;8350;52.316;10.530;2022-10-26T04:48:05;7.70;99.90
16479;DHT22;8350;52.316;10.530;2022-10-26T04:50:32;7.70;99.90
16479;DHT22;8350;52.316;10.530;2022-10-26T04:52:59;7.70;99.90
16479;DHT22;8350;52.316;10.530;2022-10-26T04:55:27;7.60;99.90
16479;DHT22;8350;52.316;10.530;2022-10-26T04:57:53;7.70;99.90
16479;DHT22;8350;52.316;10.530;2022-10-26T05:00:21;7.70;99.90
16479;DHT22;8350;52.316;10.530;2022-10-26T05:02:49;7.70;99.90
16479;DHT22;8350;52.316;10.530;2022-10-26T05:05:16;7.60;99.90
16479;DHT22;8350;52.316;10.530;2022-10-26T05:07:43;7.50;99.90
16479;DHT22;8350;52.316;10.530;2022-10-26T05:10:11;7.50;99.90
16479;DHT22;8350;52.316;10.530;2022-10-26T05:12:38;7.50;99.90
16479;DHT22;8350;52.316;10.530;2022-10-26T05:15:06;7.60;99.90
16479;DHT22;8350;52.316;10.530;2022-10-26T05:17:33;7.50;99.90
16479;DHT22;8350;52.316;10.530;2022-10-26T05:20:01;7.50;99.90
16479;DHT22;8350;52.316;10.530;2022-10-26T05:22:30;7.40;99.90
16479;DHT22;8350;52.316;10.530;2022-10-26T05:24:57;7.40;99.90
16479;DHT22;8350;52.316;10.530;2022-10-26T05:27:24;7.30;99.90
16479;DHT22;8350;52.316;10.530;2022-10-26T05:29:52;7.20;99.90
16479;DHT22;8350;52.316;10.530;2022-10-26T05:32:20;7.20;99.90
16479;DHT22;8350;52.316;10.530;2022-10-26T05:34:47;7.20;99.90
16479;DHT22;8350;52.316;10.530;2022-10-26T05:37:16;7.20;99.90
16479;DHT22;8350;52.316;10.530;2022-10-26T05:39:43;7.30;99.90
16479;DHT22;8350;52.316;10.530;2022-10-26T05:42:10;7.40;99.90
16479;DHT22;8350;52.316;10.530;2022-10-26T05:44:37;7.50;99.90
16479;DHT22;8350;52.316;10.530;2022-10-26T05:47:05;7.60;99.90
16479;DHT22;8350;52.316;10.530;2022-10-26T05:49:32;7.80;99.90
16479;DHT22;8350;52.316;10.530;2022-10-26T05:52:01;8.00;99.90
16479;DHT22;8350;52.316;10.530;2022-10-26T05:54:29;8.20;99.90
16479;DHT22;8350;52.316;10.530;2022-10-26T05:56:57;8.30;99.90
16479;DHT22;8350;52.316;10.530;2022-10-26T05:59:24;8.50;99.90
16479;DHT22;8350;52.316;10.530;2022-10-26T06:02:00;8.50;99.90
16479;DHT22;8350;52.316;10.530;2022-10-26T06:04:35;8.60;99.90
16479;DHT22;8350;52.316;10.530;2022-10-26T06:07:08;8.70;99.90
16479;DHT22;8350;52.316;10.530;2022-10-26T06:09:39;8.80;99.90
16479;DHT22;8350;52.316;10.530;2022-10-26T06:12:08;8.80;99.90
16479;DHT22;8350;52.316;10.530;2022-10-26T06:14:35;8.90;99.90
16479;DHT22;8350;52.316;10.530;2022-10-26T06:17:26;8.90;99.90
16479;DHT22;8350;52.316;10.530;2022-10-26T06:23:02;8.90;99.90
16479;DHT22;8350;52.316;10.530;2022-10-26T06:25:41;8.80;99.90
16479;DHT22;8350;52.316;10.530;2022-10-26T06:28:22;8.80;99.90
16479;DHT22;8350;52.316;10.530;2022-10-26T06:30:51;8.90;99.90
16479;DHT22;8350;52.316;10.530;2022-10-26T06:33:18;9.00;99.90
16479;DHT22;8350;52.316;10.530;2022-10-26T06:35:52;9.00;99.90
16479;DHT22;8350;52.316;10.530;2022-10-26T06:38:22;9.10;99.90
16479;DHT22;8350;52.316;10.530;2022-10-26T06:40:55;9.10;99.90
16479;DHT22;8350;52.316;10.530;2022-10-26T06:43:24;9.20;99.90
16479;DHT22;8350;52.316;10.530;2022-10-26T06:45:55;9.10;99.90
16479;DHT22;8350;52.316;10.530;2022-10-26T06:48:43;9.00;99.90
16479;DHT22;8350;52.316;10.530;2022-10-26T06:51:14;8.80;99.90
16479;DHT22;8350;52.316;10.530;2022-10-26T06:53:49;8.70;99.90
16479;DHT22;8350;52.316;10.530;2022-10-26T06:56:20;8.60;99.90
16479;DHT22;8350;52.316;10.530;2022-10-26T06:58:52;8.60;99.90
16479;DHT22;8350;52.316;10.530;2022-10-26T07:01:21;8.50;99.90
16479;DHT22;8350;52.316;10.530;2022-10-26T07:03:48;8.50;99.90
16479;DHT22;8350;52.316;10.530;2022-10-26T07:06:15;8.50;99.90
16479;DHT22;8350;52.316;10.530;2022-10-26T07:08:42;8.50;99.90
16479;DHT22;8350;52.316;10.530;2022-10-26T07:11:10;8.40;99.90
16479;DHT22;8350;52.316;10.530;2022-10-26T07:13:38;8.30;99.90
16479;DHT22;8350;52.316;10.530;2022-10-26T07:16:05;8.20;99.90
16479;DHT22;8350;52.316;10.530;2022-10-26T07:18:32;8.30;99.90
16479;DHT22;8350;52.316;10.530;2022-10-26T07:21:00;8.30;99.90
16479;DHT22;8350;52.316;10.530;2022-10-26T07:23:27;8.40;99.90
16479;DHT22;8350;52.316;10.530;2022-10-26T07:25:54;8.60;99.90
16479;DHT22;8350;52.316;10.530;2022-10-26T07:28:21;8.80;99.90
16479;DHT22;8350;52.316;10.530;2022-10-26T07:30:50;8.80;99.90
16479;DHT22;8350;52.316;10.530;2022-10-26T07:33:17;8.80;99.90
16479;DHT22;8350;52.316;10.530;2022-10-26T07:35:44;8.90;99.90
16479;DHT22;8350;52.316;10.530;2022-10-26T07:38:11;9.20;99.90
16479;DHT22;8350;52.316;10.530;2022-10-26T07:40:39;9.50;99.90
16479;DHT22;8350;52.316;10.530;2022-10-26T07:43:06;9.70;99.90
16479;DHT22;8350;52.316;10.530;2022-10-26T07:45:33;10.00;99.90
16479;DHT22;8350;52.316;10.530;2022-10-26T07:48:03;10.20;99.90
16479;DHT22;8350;52.316;10.530;2022-10-26T07:50:30;10.40;99.90
16479;DHT22;8350;52.316;10.530;2022-10-26T07:52:57;10.60;99.90
16479;DHT22;8350;52.316;10.530;2022-10-26T07:55:24;10.90;99.90
16479;DHT22;8350;52.316;10.530;2022-10-26T07:57:53;11.00;99.90
16479;DHT22;8350;52.316;10.530;2022-10-26T08:00:21;11.30;99.90
16479;DHT22;8350;52.316;10.530;2022-10-26T08:02:50;11.40;99.90
16479;DHT22;8350;52.316;10.530;2022-10-26T08:05:18;11.60;99.90
16479;DHT22;8350;52.316;10.530;2022-10-26T08:07:45;11.80;99.90
16479;DHT22;8350;52.316;10.530;2022-10-26T08:10:13;12.00;99.90
16479;DHT22;8350;52.316;10.530;2022-10-26T08:12:41;12.20;99.90
16479;DHT22;8350;52.316;10.530;2022-10-26T08:15:08;12.30;99.90
16479;DHT22;8350;52.316;10.530;2022-10-26T08:17:35;12.50;99.90
16479;DHT22;8350;52.316;10.530;2022-10-26T08:20:03;12.60;99.90
16479;DHT22;8350;52.316;10.530;2022-10-26T08:22:32;12.80;99.90
16479;DHT22;8350;52.316;10.530;2022-10-26T08:24:59;12.90;99.90
16479;DHT22;8350;52.316;10.530;2022-10-26T08:27:26;13.10;99.90
16479;DHT22;8350;52.316;10.530;2022-10-26T08:29:53;13.20;99.90
16479;DHT22;8350;52.316;10.530;2022-10-26T08:32:20;13.30;99.90
16479;DHT22;8350;52.316;10.530;2022-10-26T08:34:47;13.50;99.90
16479;DHT22;8350;52.316;10.530;2022-10-26T08:37:14;13.60;99.90
16479;DHT22;8350;52.316;10.530;2022-10-26T08:39:42;13.70;99.90
16479;DHT22;8350;52.316;10.530;2022-10-26T08:42:12;13.80;99.90
16479;DHT22;8350;52.316;10.530;2022-10-26T08:44:44;14.00;99.90
16479;DHT22;8350;52.316;10.530;2022-10-26T08:47:17;14.10;99.90
16479;DHT22;8350;52.316;10.530;2022-10-26T08:49:49;14.20;99.90
16479;DHT22;8350;52.316;10.530;2022-10-26T08:52:22;14.40;99.90
16479;DHT22;8350;52.316;10.530;2022-10-26T08:54:54;14.50;99.90
16479;DHT22;8350;52.316;10.530;2022-10-26T08:57:24;14.70;99.90
16479;DHT22;8350;52.316;10.530;2022-10-26T08:59:56;14.80;99.90
16479;DHT22;8350;52.316;10.530;2022-10-26T09:02:24;14.70;99.90
16479;DHT22;8350;52.316;10.530;2022-10-26T09:04:52;14.70;99.90
16479;DHT22;8350;52.316;10.530;2022-10-26T09:07:45;14.60;99.90
16479;DHT22;8350;52.316;10.530;2022-10-26T09:10:24;14.50;99.90
16479;DHT22;8350;52.316;10.530;2022-10-26T09:12:58;14.60;99.90
16479;DHT22;8350;52.316;10.530;2022-10-26T09:15:36;14.60;99.90
16479;DHT22;8350;52.316;10.530;2022-10-26T09:18:16;14.60;99.90
16479;DHT22;8350;52.316;10.530;2022-10-26T09:21:08;14.60;99.90
16479;DHT22;8350;52.316;10.530;2022-10-26T09:23:58;14.80;99.90
16479;DHT22;8350;52.316;10.530;2022-10-26T09:26:36;14.80;99.90
16479;DHT22;8350;52.316;10.530;2022-10-26T09:29:10;14.80;99.90
16479;DHT22;8350;52.316;10.530;2022-10-26T09:31:39;14.90;99.90
16479;DHT22;8350;52.316;10.530;2022-10-26T09:34:07;14.90;99.90
16479;DHT22;8350;52.316;10.530;2022-10-26T09:36:38;14.90;99.90
16479;DHT22;8350;52.316;10.530;2022-10-26T09:39:12;15.00;99.90
16479;DHT22;8350;52.316;10.530;2022-10-26T09:41:45;14.90;99.90
16479;DHT22;8350;52.316;10.530;2022-10-26T09:44:18;14.90;99.90
16479;DHT22;8350;52.316;10.530;2022-10-26T09:46:54;14.90;99.90
16479;DHT22;8350;52.316;10.530;2022-10-26T09:49:30;14.90;99.90
16479;DHT22;8350;52.316;10.530;2022-10-26T09:51:58;14.90;99.90
16479;DHT22;8350;52.316;10.530;2022-10-26T09:54:25;15.00;99.90
16479;DHT22;8350;52.316;10.530;2022-10-26T09:56:56;15.00;99.90
16479;DHT22;8350;52.316;10.530;2022-10-26T09:59:25;15.00;99.90
16479;DHT22;8350;52.316;10.530;2022-10-26T10:01:52;15.00;99.90
16479;DHT22;8350;52.316;10.530;2022-10-26T10:04:22;15.10;99.90
16479;DHT22;8350;52.316;10.530;2022-10-26T10:06:51;15.10;99.90
16479;DHT22;8350;52.316;10.530;2022-10-26T10:09:19;15.10;99.90
16479;DHT22;8350;52.316;10.530;2022-10-26T10:11:49;15.10;99.90
16479;DHT22;8350;52.316;10.530;2022-10-26T10:14:23;15.10;99.90
16479;DHT22;8350;52.316;10.530;2022-10-26T10:16:54;15.10;99.90
16479;DHT22;8350;52.316;10.530;2022-10-26T10:19:23;15.20;99.90
16479;DHT22;8350;52.316;10.530;2022-10-26T10:21:53;15.20;99.90
16479;DHT22;8350;52.316;10.530;2022-10-26T10:24:26;15.20;99.90
16479;DHT22;8350;52.316;10.530;2022-10-26T10:27:01;15.30;99.90
16479;DHT22;8350;52.316;10.530;2022-10-26T10:29:32;15.40;99.90
16479;DHT22;8350;52.316;10.530;2022-10-26T10:32:03;15.50;99.90
16479;DHT22;8350;52.316;10.530;2022-10-26T10:34:32;15.50;99.90
16479;DHT22;8350;52.316;10.530;2022-10-26T10:37:00;15.60;99.90
16479;DHT22;8350;52.316;10.530;2022-10-26T10:39:40;15.60;99.90
16479;DHT22;8350;52.316;10.530;2022-10-26T10:42:16;15.80;99.90
16479;DHT22;8350;52.316;10.530;2022-10-26T10:44:49;15.80;99.90
16479;DHT22;8350;52.316;10.530;2022-10-26T10:47:22;15.90;99.90
16479;DHT22;8350;52.316;10.530;2022-10-26T10:49:52;16.00;99.90
16479;DHT22;8350;52.316;10.530;2022-10-26T10:52:25;16.20;99.90
16479;DHT22;8350;52.316;10.530;2022-10-26T10:55:00;16.30;99.90
16479;DHT22;8350;52.316;10.530;2022-10-26T10:57:38;16.40;99.90
16479;DHT22;8350;52.316;10.530;2022-10-26T11:00:11;16.60;99.90
16479;DHT22;8350;52.316;10.530;2022-10-26T11:06:00;17.10;99.90
16479;DHT22;8350;52.316;10.530;2022-10-26T11:08:33;17.30;99.90
16479;DHT22;8350;52.316;10.530;2022-10-26T11:11:05;17.40;99.90
16479;DHT22;8350;52.316;10.530;2022-10-26T11:13:35;17.50;99.90
16479;DHT22;8350;52.316;10.530;2022-10-26T11:16:10;17.50;99.90
16479;DHT22;8350;52.316;10.530;2022-10-26T11:18:42;17.40;99.90
16479;DHT22;8350;52.316;10.530;2022-10-26T11:21:19;17.30;99.90
16479;DHT22;8350;52.316;10.530;2022-10-26T11:23:50;17.20;99.90
16479;DHT22;8350;52.316;10.530;2022-10-26T11:26:22;17.30;99.90
16479;DHT22;8350;52.316;10.530;2022-10-26T11:28:56;17.30;99.90
16479;DHT22;8350;52.316;10.530;2022-10-26T11:31:29;17.50;99.90
16479;DHT22;8350;52.316;10.530;2022-10-26T11:34:16;17.60;99.90
16479;DHT22;8350;52.316;10.530;2022-10-26T11:36:48;17.70;99.90
16479;DHT22;8350;52.316;10.530;2022-10-26T11:39:21;17.80;99.90
16479;DHT22;8350;52.316;10.530;2022-10-26T11:41:55;18.00;99.90
16479;DHT22;8350;52.316;10.530;2022-10-26T11:44:30;18.10;99.90
16479;DHT22;8350;52.316;10.530;2022-10-26T11:47:06;18.20;99.90
16479;DHT22;8350;52.316;10.530;2022-10-26T11:49:41;18.30;99.90
16479;DHT22;8350;52.316;10.530;2022-10-26T11:52:12;18.30;99.90
16479;DHT22;8350;52.316;10.530;2022-10-26T11:54:46;18.30;99.90
16479;DHT22;8350;52.316;10.530;2022-10-26T11:57:18;18.20;99.90
16479;DHT22;8350;52.316;10.530;2022-10-26T11:59:51;18.30;99.90
16479;DHT22;8350;52.316;10.530;2022-10-26T12:02:21;18.20;99.90
16479;DHT22;8350;52.316;10.530;2022-10-26T12:04:55;18.30;99.90
16479;DHT22;8350;52.316;10.530;2022-10-26T12:07:28;18.10;99.90
16479;DHT22;8350;52.316;10.530;2022-10-26T12:09:58;18.20;99.90
16479;DHT22;8350;52.316;10.530;2022-10-26T12:12:33;18.20;99.90
16479;DHT22;8350;52.316;10.530;2022-10-26T12:15:09;18.20;99.90
16479;DHT22;8350;52.316;10.530;2022-10-26T12:17:48;18.30;99.90
16479;DHT22;8350;52.316;10.530;2022-10-26T12:20:38;18.40;99.90
16479;DHT22;8350;52.316;10.530;2022-10-26T12:23:13;18.50;99.90
16479;DHT22;8350;52.316;10.530;2022-10-26T12:25:41;18.50;99.90
16479;DHT22;8350;52.316;10.530;2022-10-26T12:28:37;18.80;99.90
16479;DHT22;8350;52.316;10.530;2022-10-26T12:31:41;19.10;99.90
16479;DHT22;8350;52.316;10.530;2022-10-26T12:34:14;19.30;99.90
16479;DHT22;8350;52.316;10.530;2022-10-26T12:36:49;19.30;99.90
16479;DHT22;8350;52.316;10.530;2022-10-26T12:41:56;19.40;55.90
16479;DHT22;8350;52.316;10.530;2022-10-26T12:44:35;19.50;62.30
16479;DHT22;8350;52.316;10.530;2022-10-26T12:47:02;19.50;56.10
16479;DHT22;8350;52.316;10.530;2022-10-26T12:52:33;19.80;73.50
16479;DHT22;8350;52.316;10.530;2022-10-26T12:55:32;19.70;41.80
16479;DHT22;8350;52.316;10.530;2022-10-26T12:58:29;19.50;74.40
16479;DHT22;8350;52.316;10.530;2022-10-26T13:01:38;19.30;94.00
16479;DHT22;8350;52.316;10.530;2022-10-26T13:04:35;19.20;95.20
16479;DHT22;8350;52.316;10.530;2022-10-26T13:07:16;19.20;99.90
16479;DHT22;8350;52.316;10.530;2022-10-26T13:09:55;19.20;99.90
16479;DHT22;8350;52.316;10.530;2022-10-26T13:12:25;19.20;92.10
16479;DHT22;8350;52.316;10.530;2022-10-26T13:15:02;19.30;99.90
16479;DHT22;8350;52.316;10.530;2022-10-26T13:17:31;19.40;87.20
16479;DHT22;8350;52.316;10.530;2022-10-26T13:20:00;19.30;88.90
16479;DHT22;8350;52.316;10.530;2022-10-26T13:22:30;19.30;90.20
16479;DHT22;8350;52.316;10.530;2022-10-26T13:25:03;19.30;99.90
16479;DHT22;8350;52.316;10.530;2022-10-26T13:27:42;19.30;99.90
16479;DHT22;8350;52.316;10.530;2022-10-26T13:33:22;19.10;67.90
16479;DHT22;8350;52.316;10.530;2022-10-26T13:35:55;19.10;95.20
16479;DHT22;8350;52.316;10.530;2022-10-26T13:38:28;19.20;99.90
16479;DHT22;8350;52.316;10.530;2022-10-26T13:41:09;19.20;93.10
16479;DHT22;8350;52.316;10.530;2022-10-26T13:43:48;19.10;99.90
16479;DHT22;8350;52.316;10.530;2022-10-26T13:46:34;19.10;94.60
16479;DHT22;8350;52.316;10.530;2022-10-26T13:49:06;19.00;98.00
16479;DHT22;8350;52.316;10.530;2022-10-26T13:51:42;19.10;89.90
16479;DHT22;8350;52.316;10.530;2022-10-26T13:54:19;19.00;83.10
16479;DHT22;8350;52.316;10.530;2022-10-26T13:57:17;19.00;93.60
16479;DHT22;8350;52.316;10.530;2022-10-26T13:59:47;19.10;68.90
16479;DHT22;8350;52.316;10.530;2022-10-26T14:02:17;19.00;85.40
16479;DHT22;8350;52.316;10.530;2022-10-26T14:04:46;19.00;97.70
16479;DHT22;8350;52.316;10.530;2022-10-26T14:07:20;19.10;94.90
16479;DHT22;8350;52.316;10.530;2022-10-26T14:09:52;19.10;93.80
16479;DHT22;8350;52.316;10.530;2022-10-26T14:12:22;19.10;88.10
16479;DHT22;8350;52.316;10.530;2022-10-26T14:14:50;19.10;79.40
16479;DHT22;8350;52.316;10.530;2022-10-26T14:17:21;19.10;83.20
16479;DHT22;8350;52.316;10.530;2022-10-26T14:19:49;19.10;84.10
16479;DHT22;8350;52.316;10.530;2022-10-26T14:22:20;19.10;77.20
16479;DHT22;8350;52.316;10.530;2022-10-26T14:24:54;19.10;59.10
16479;DHT22;8350;52.316;10.530;2022-10-26T14:27:25;19.20;59.10
16479;DHT22;8350;52.316;10.530;2022-10-26T14:29:56;19.20;50.00
16479;DHT22;8350;52.316;10.530;2022-10-26T14:32:30;19.20;90.60
16479;DHT22;8350;52.316;10.530;2022-10-26T14:35:04;19.20;99.90
16479;DHT22;8350;52.316;10.530;2022-10-26T14:37:39;19.20;98.80
16479;DHT22;8350;52.316;10.530;2022-10-26T14:40:14;19.10;92.90
16479;DHT22;8350;52.316;10.530;2022-10-26T14:42:45;19.10;99.90
16479;DHT22;8350;52.316;10.530;2022-10-26T14:45:23;19.10;99.90
16479;DHT22;8350;52.316;10.530;2022-10-26T14:47:54;19.00;99.90
16479;DHT22;8350;52.316;10.530;2022-10-26T14:50:23;19.00;75.20
16479;DHT22;8350;52.316;10.530;2022-10-26T14:53:02;19.00;82.90
16479;DHT22;8350;52.316;10.530;2022-10-26T14:55:53;19.00;90.80
16479;DHT22;8350;52.316;10.530;2022-10-26T14:58:25;18.80;38.30
16479;DHT22;8350;52.316;10.530;2022-10-26T15:01:22;18.70;48.40
16479;DHT22;8350;52.316;10.530;2022-10-26T15:03:52;18.50;33.90
16479;DHT22;8350;52.316;10.530;2022-10-26T15:06:30;18.40;56.90
16479;DHT22;8350;52.316;10.530;2022-10-26T15:09:00;18.40;75.50
16479;DHT22;8350;52.316;10.530;2022-10-26T15:11:31;18.30;82.10
16479;DHT22;8350;52.316;10.530;2022-10-26T15:14:00;18.10;63.50
16479;DHT22;8350;52.316;10.530;2022-10-26T15:16:30;18.00;65.00
16479;DHT22;8350;52.316;10.530;2022-10-26T15:19:05;17.90;77.70
16479;DHT22;8350;52.316;10.530;2022-10-26T15:21:35;17.80;90.80
16479;DHT22;8350;52.316;10.530;2022-10-26T15:24:31;17.60;96.40
16479;DHT22;8350;52.316;10.530;2022-10-26T15:26:59;17.40;99.90
16479;DHT22;8350;52.316;10.530;2022-10-26T15:30:07;17.30;99.90
16479;DHT22;8350;52.316;10.530;2022-10-26T15:32:35;17.20;99.90
16479;DHT22;8350;52.316;10.530;2022-10-26T15:38:00;17.10;99.90
16479;DHT22;8350;52.316;10.530;2022-10-26T15:40:28;17.00;99.90
16479;DHT22;8350;52.316;10.530;2022-10-26T15:43:01;17.00;99.90
16479;DHT22;8350;52.316;10.530;2022-10-26T15:45:36;16.90;99.90
16479;DHT22;8350;52.316;10.530;2022-10-26T15:48:17;16.90;99.90
16479;DHT22;8350;52.316;10.530;2022-10-26T15:50:45;16.80;99.90
16479;DHT22;8350;52.316;10.530;2022-10-26T15:53:17;16.70;99.90
16479;DHT22;8350;52.316;10.530;2022-10-26T15:55:45;16.80;99.90
16479;DHT22;8350;52.316;10.530;2022-10-26T15:58:13;16.70;99.90
16479;DHT22;8350;52.316;10.530;2022-10-26T16:00:43;16.60;99.90
16479;DHT22;8350;52.316;10.530;2022-10-26T16:03:14;16.60;99.90
16479;DHT22;8350;52.316;10.530;2022-10-26T16:05:44;16.50;99.90
16479;DHT22;8350;52.316;10.530;2022-10-26T16:08:15;16.50;99.90
16479;DHT22;8350;52.316;10.530;2022-10-26T16:10:45;16.30;99.90
16479;DHT22;8350;52.316;10.530;2022-10-26T16:13:15;16.20;99.90
16479;DHT22;8350;52.316;10.530;2022-10-26T16:15:53;16.20;99.90
16479;DHT22;8350;52.316;10.530;2022-10-26T16:18:23;16.10;99.90
16479;DHT22;8350;52.316;10.530;2022-10-26T16:20:58;16.10;99.90
16479;DHT22;8350;52.316;10.530;2022-10-26T16:23:25;16.00;99.90
16479;DHT22;8350;52.316;10.530;2022-10-26T16:25:53;15.90;99.90